sensor_id;sensor_type;location;lat;lon;timestamp;temperature;humidity
43528;DHT22;52359;42.658;23.320;2022-07-10T02:07:25;17.90;99.90
43528;DHT22;52359;42.658;23.320;2022-07-10T02:09:51;17.70;99.90
43528;DHT22;52359;42.658;23.320;2022-07-10T02:12:17;17.80;99.90
43528;DHT22;52359;42.658;23.320;2022-07-10T02:14:43;17.70;99.90
43528;DHT22;52359;42.658;23.320;2022-07-10T02:17:09;17.70;99.90
43528;DHT22;52359;42.658;23.320;2022-07-10T02:19:37;17.70;99.90
43528;DHT22;52359;42.658;23.320;2022-07-10T03:30:19;17.70;99.90
43528;DHT22;52359;42.658;23.320;2022-07-10T04:48:35;17.80;99.90
43528;DHT22;52359;42.658;23.320;2022-07-10T06:08:56;18.50;99.90
43528;DHT22;52359;42.658;23.320;2022-07-10T06:11:24;18.60;99.90
43528;DHT22;52359;42.658;23.320;2022-07-10T06:13:50;19.00;99.90
43528;DHT22;52359;42.658;23.320;2022-07-10T06:16:16;19.10;99.90
43528;DHT22;52359;42.658;23.320;2022-07-10T06:18:41;19.20;99.90
43528;DHT22;52359;42.658;23.320;2022-07-10T06:21:07;19.10;99.90
43528;DHT22;52359;42.658;23.320;2022-07-10T06:28:25;19.30;99.90
43528;DHT22;52359;42.658;23.320;2022-07-10T06:43:02;19.90;99.90
43528;DHT22;52359;42.658;23.320;2022-07-10T06:45:28;19.90;99.90
43528;DHT22;52359;42.658;23.320;2022-07-10T06:50:28;20.00;99.90
43528;DHT22;52359;42.658;23.320;2022-07-10T06:52:58;20.10;99.90
43528;DHT22;52359;42.658;23.320;2022-07-10T06:55:24;19.90;99.90
43528;DHT22;52359;42.658;23.320;2022-07-10T06:57:50;19.90;99.90
43528;DHT22;52359;42.658;23.320;2022-07-10T07:00:16;20.20;99.90
43528;DHT22;52359;42.658;23.320;2022-07-10T07:10:03;20.10;99.90
43528;DHT22;52359;42.658;23.320;2022-07-10T07:12:29;20.40;99.90
43528;DHT22;52359;42.658;23.320;2022-07-10T07:14:54;20.50;99.90
43528;DHT22;52359;42.658;23.320;2022-07-10T07:22:32;20.60;99.90
43528;DHT22;52359;42.658;23.320;2022-07-10T07:25:17;20.60;99.90
43528;DHT22;52359;42.658;23.320;2022-07-10T07:27:43;21.00;99.90
43528;DHT22;52359;42.658;23.320;2022-07-10T07:30:13;20.90;99.90
43528;DHT22;52359;42.658;23.320;2022-07-10T07:32:44;21.10;99.90
43528;DHT22;52359;42.658;23.320;2022-07-10T07:35:11;21.10;99.90
43528;DHT22;52359;42.658;23.320;2022-07-10T08:26:22;22.50;99.90
43528;DHT22;52359;42.658;23.320;2022-07-10T09:43:52;25.40;93.90
43528;DHT22;52359;42.658;23.320;2022-07-10T09:46:26;25.30;95.00
43528;DHT22;52359;42.658;23.320;2022-07-10T09:49:03;25.60;95.20
43528;DHT22;52359;42.658;23.320;2022-07-10T09:51:36;25.50;94.00
43528;DHT22;52359;42.658;23.320;2022-07-10T09:54:04;25.40;94.50
43528;DHT22;52359;42.658;23.320;2022-07-10T09:56:40;25.60;96.70
43528;DHT22;52359;42.658;23.320;2022-07-10T09:59:11;25.60;95.40
43528;DHT22;52359;42.658;23.320;2022-07-10T10:12:17;25.50;95.00
43528;DHT22;52359;42.658;23.320;2022-07-10T10:14:47;25.70;95.10
43528;DHT22;52359;42.658;23.320;2022-07-10T10:17:15;25.90;94.50
43528;DHT22;52359;42.658;23.320;2022-07-10T10:19:41;25.90;94.90
43528;DHT22;52359;42.658;23.320;2022-07-10T10:22:27;26.00;95.10
43528;DHT22;52359;42.658;23.320;2022-07-10T10:24:54;26.00;94.50
43528;DHT22;52359;42.658;23.320;2022-07-10T10:27:21;25.90;94.80
43528;DHT22;52359;42.658;23.320;2022-07-10T10:29:48;26.10;95.00
43528;DHT22;52359;42.658;23.320;2022-07-10T10:32:15;25.90;94.70
43528;DHT22;52359;42.658;23.320;2022-07-10T10:34:43;26.20;94.90
43528;DHT22;52359;42.658;23.320;2022-07-10T10:37:34;26.30;99.60
43528;DHT22;52359;42.658;23.320;2022-07-10T10:53:22;26.50;92.70
43528;DHT22;52359;42.658;23.320;2022-07-10T10:58:37;26.30;93.40
43528;DHT22;52359;42.658;23.320;2022-07-10T11:01:32;26.60;93.20
43528;DHT22;52359;42.658;23.320;2022-07-10T11:14:06;26.80;92.90
43528;DHT22;52359;42.658;23.320;2022-07-10T11:16:33;26.80;93.30
43528;DHT22;52359;42.658;23.320;2022-07-10T11:19:00;26.90;93.60
43528;DHT22;52359;42.658;23.320;2022-07-10T11:21:28;27.40;93.10
43528;DHT22;52359;42.658;23.320;2022-07-10T11:24:10;27.50;92.90
43528;DHT22;52359;42.658;23.320;2022-07-10T11:39:08;27.10;94.00
43528;DHT22;52359;42.658;23.320;2022-07-10T11:41:45;26.80;92.10
43528;DHT22;52359;42.658;23.320;2022-07-10T11:44:15;27.10;92.40
43528;DHT22;52359;42.658;23.320;2022-07-10T11:46:43;26.80;92.50
43528;DHT22;52359;42.658;23.320;2022-07-10T11:49:14;27.10;92.70
43528;DHT22;52359;42.658;23.320;2022-07-10T11:51:43;27.30;92.90
43528;DHT22;52359;42.658;23.320;2022-07-10T11:54:12;27.40;92.70
43528;DHT22;52359;42.658;23.320;2022-07-10T12:01:44;27.80;92.20
43528;DHT22;52359;42.658;23.320;2022-07-10T14:02:54;27.00;84.70
43528;DHT22;52359;42.658;23.320;2022-07-10T22:31:25;19.90;96.70
